Terminal Aerodrome Forecast
Issued by NWS

Home | Current Version | Previous Version | Text Only | Print | Product List | Glossary On
Versions: 1 2 3 4 5 6 7 8 9 10 11 12 13 14 15
714
FTUS46 KSEW 110520
TAFHQM
TAF
KHQM 110520Z 1106/1206 05005KT 4SM BR OVC015
     FM110900 06006KT P6SM BKN015 BKN050
     FM111800 09010KT 3SM -RA BKN015 OVC030
     FM120000 14012KT 5SM -RA BR BKN015 OVC030
     FM120500 18010KT P6SM -SHRA BKN015 BKN040=

USA.gov is the U.S. government's official web portal to all federal, state and local government web resources and services.